TFM - Tactical Decision Aid
ID: Runway Winds: CIG/VIS Threshold:

KCLT - Charlotte/Douglas In, NC, US

Updated at: 2050 UTC 17 Jun 2019
Latest TAF at: 1957 UTC 17 Jun 2019

TAF Board

Time1952Z 17/21Z 17/22Z 17/23Z 18/00Z 18/01Z 18/02Z 18/03Z 18/04Z 18/05Z 18/06Z 18/07Z 18/08Z 18/09Z>>
Type OBS PRVL PRVL
  [TEMP]  
PRVL
  [TEMP]  
PRVL
  [TEMP]  
PRVL
  [TEMP]  
PRVL PRVL PRVL PRVL PRVL PRVL PRVL PRVL
VIS 10 >6 >6
  [3]  
>6
  [3]  
>6
  [3]  
>6
  [3]  
>6 >6 >6 >6 >6 >6 >6 >6
CIG -- -- --
  [40]  
--
  [40]  
--
  [40]  
--
  [40]  
-- -- -- -- -- -- 250 250
Cover SCT SCT SCT
  [BKN]  
SCT
  [BKN]  
SCT
  [BKN]  
SCT
  [BKN]  
SCT SCT SCT SCT SCT SCT BKN BKN
FltCat VFR VFR VFR
  [MVFR]  
VFR
  [MVFR]  
VFR
  [MVFR]  
VFR
  [MVFR]  
VFR VFR VFR VFR VFR VFR VFR VFR
WX -- VCSH VCSH
  [-TSRA]  
VCSH
  [-TSRA]  
VCSH
  [-TSRA]  
VCSH
  [-TSRA]  
VCSH VCSH VCSH VCSH VCSH VCSH -- --
WDir 220 230 230
[230]
230
[230]
230
[230]
230
[230]
220 220 220 220 220 220 220 220
WSpd 10 9 9
  [9]  
9
  [9]  
9
  [9]  
9
  [9]  
6 6 6 6 6 6 5 5
WGst -- -- --
  [--]  
--
  [--]  
--
  [--]  
--
  [--]  
-- -- -- -- -- -- -- --

TDA Impact Legend

  None Marginal Slight Moderate High
Visibility (sm) >5 3≤X≤5 1≤X<3 0.5≤X<1 <0.5
Ceiling (100 ft) >30 10≤X≤30 4≤X<10 2≤X<4 <2
Wind Speed (kt) <15 15≤X<25 25≤X<30 ≥30
Wind Gust (kt) <15 15≤X<25 25≤X<35 ≥35
Weather No Wx Reported VCTS -TS,-FZRA TS,FZRA +TS,+FZRA
TAF
KCLT 171957Z 1720/1824 23009KT P6SM VCSH FEW045 SCT250
  TEMPO 1722/1802 3SM -TSRA BKN040CB
  FM180200 22006KT P6SM VCSH SCT050
  FM180800 22005KT P6SM BKN250
  FM181800 21005KT P6SM VCSH SCT250
  PROB30 1818/1824 4SM TSRA BKN040CB


METAR
KCLT 171952Z 22010KT 10SM FEW045 SCT250 33/19 A3002 RMK AO2 SLP157 CB DSNT SE AND NW TCU DSNT SE AND NW-N T03280189
KCLT 171852Z 23008KT 10SM FEW045 SCT250 33/19 A3003 RMK AO2 LTG DSNT S SLP159 CB DSNT SE-S AND W-NW TCU DSNT ALQDS T03280189
KCLT 171752Z 20011KT 10SM SCT040 SCT250 32/21 A3006 RMK AO2 SLP169 TCU DSNT E-S T03220206 10322 20244 58009

Radar Display
Forecast Discussion